Chance — 5BJY4 — position and weather

sailwx.info

Track history (hours):
 
Tides and Currents Weather Stations Pressure Air Temp Water Temp Dewpoint Dewpoint Depression Visibility Wind Speed Wind Dir Waves Ship Positions

Chance

Last reported at 2018-Jun-10 14:33 UTC. Time now 2018-Jun-24 05:09 UTC.
Position N 01°27' E 103°10'.
Warning: this ship's position is 13 days out of date.

Length 225 m; draft 7.2 m.

Type: Cargo ship. MMSI: 210683000.

Date/timePositionNaut miles runAvg speedWind from/ knotsBaromVisibWave heightAir tempDewpointWater temp
2018-Jun-10 14:33N 01°27' E 103°10'612.3
2018-Jun-10 14:03N 01°23' E 103°15'711.7
2018-Jun-10 13:28N 01°19' E 103°20'511.4
2018-Jun-10 13:00N 01°15' E 103°24'611.1
2018-Jun-10 12:30N 01°13' E 103°29'612.6
2018-Jun-10 12:00N 01°12' E 103°36'611.5
2018-Jun-10 11:30N 01°10' E 103°41'611.2
2018-Jun-10 11:00N 01°10' E 103°47'713.4
2018-Jun-10 10:30N 01°13' E 103°53'4 7.2
2018-Jun-10 10:00N 01°14' E 103°56'3 5.2
2018-Jun-10 09:31N 01°16' E 103°58'1 2.1
2018-Jun-10 08:57N 01°17' E 103°57'0 0.0
2018-Jun-10 08:20N 01°17' E 103°57'0 0.0
2018-Jun-10 07:51N 01°17' E 103°57'0 0.0
2018-Jun-10 07:20N 01°17' E 103°57'0 0.0
2018-Jun-10 06:56N 01°17' E 103°57'0 0.0
2018-Jun-10 06:27N 01°17' E 103°57'0 0.0
2018-Jun-10 05:56N 01°17' E 103°57'0 0.0
2018-Jun-10 05:24N 01°17' E 103°57'0 0.0
2018-Jun-10 04:57N 01°17' E 103°57'0 0.0
2018-Jun-10 04:29N 01°17' E 103°57'0 0.1
2018-Jun-10 03:36N 01°17' E 103°57'0 0.0
2018-Jun-10 03:29N 01°17' E 103°57'0 0.0
2018-Jun-10 02:48N 01°17' E 103°57'0 0.2
2018-Jun-10 02:30N 01°17' E 103°57'0 0.0
2018-Jun-10 01:50N 01°17' E 103°57'0 0.0
2018-Jun-10 01:29N 01°17' E 103°57'0 0.0
2018-Jun-10 00:59N 01°17' E 103°57'0 0.0
2018-Jun-10 00:29N 01°17' E 103°57'0 0.0
2018-Jun-09 23:56N 01°17' E 103°57'0 0.0
2018-Jun-09 23:30N 01°17' E 103°57'0 0.0
2018-Jun-09 22:57N 01°17' E 103°57'0 0.0
2018-Jun-09 22:26N 01°17' E 103°57'0 0.0
2018-Jun-09 21:56N 01°17' E 103°57'0 0.0
2018-Jun-09 21:30N 01°17' E 103°57'0 0.0
2018-Jun-09 20:59N 01°17' E 103°57'0 0.2
2018-Jun-09 20:27N 01°17' E 103°57'0 0.2
2018-Jun-09 19:51N 01°17' E 103°57'0 0.0
2018-Jun-09 19:29N 01°17' E 103°57'0 0.1
2018-Jun-09 18:59N 01°17' E 103°57'0 0.0
2018-Jun-09 18:27N 01°17' E 103°57'0 0.0
2018-Jun-09 17:57N 01°17' E 103°57'0 0.0
2018-Jun-09 17:24N 01°17' E 103°57'0 0.0
2018-Jun-09 16:59N 01°17' E 103°57'0 0.0
2018-Jun-09 16:27N 01°17' E 103°57'0 0.0
2018-Jun-09 15:57N 01°17' E 103°57'0 0.0
2018-Jun-09 14:59N 01°17' E 103°57'0 0.0
2018-Jun-09 14:21N 01°17' E 103°57'0 0.0
2018-Jun-09 13:58N 01°17' E 103°57'0 0.1
2018-Jun-09 13:29N 01°17' E 103°57'0 0.0
2018-Jun-09 12:53N 01°17' E 103°57'0 0.0
2018-Jun-09 12:30N 01°17' E 103°57'0 0.1
2018-Jun-09 11:59N 01°17' E 103°57'0 0.1
2018-Jun-09 11:30N 01°17' E 103°57'0 0.0
2018-Jun-09 10:55N 01°17' E 103°57'0 0.1
2018-Jun-09 10:29N 01°17' E 103°57'0 0.0
2018-Jun-09 09:52N 01°17' E 103°57'0 0.0
2018-Jun-09 09:29N 01°17' E 103°57'0 0.0
2018-Jun-09 08:41N 01°17' E 103°57'0 0.0
2018-Jun-09 08:25N 01°17' E 103°57'0 0.0
2018-Jun-09 07:57N 01°17' E 103°57'0 0.0
2018-Jun-09 07:18N 01°17' E 103°57'0 0.0
2018-Jun-09 06:58N 01°17' E 103°57'0 0.0
2018-Jun-09 06:24N 01°17' E 103°57'0 0.0
2018-Jun-09 05:58N 01°17' E 103°57'0 0.0
2018-Jun-09 05:25N 01°17' E 103°57'0 0.0
2018-Jun-09 04:53N 01°17' E 103°57'0 0.0
2018-Jun-09 04:17N 01°17' E 103°57'0 0.0
2018-Jun-09 03:58N 01°17' E 103°57'0 0.0
2018-Jun-09 03:30N 01°17' E 103°57'0 0.1
2018-Jun-09 02:56N 01°17' E 103°57'0 0.0
2018-Jun-09 02:23N 01°17' E 103°57'0 0.1
2018-Jun-09 01:50N 01°17' E 103°57'0 0.1
2018-Jun-09 01:17N 01°17' E 103°57'0 0.2
2018-Jun-09 01:00N 01°17' E 103°57'0 0.1
2018-Jun-09 00:30N 01°17' E 103°57'0 0.0
2018-Jun-09 00:00N 01°17' E 103°57'1 2.2
2018-Jun-08 23:30N 01°17' E 103°58'3 4.9
2018-Jun-08 22:59N 01°16' E 104°01'4 7.5
2018-Jun-08 22:30N 01°16' E 104°05'4 7.8
2018-Jun-08 21:59N 01°17' E 104°09'4 8.4
2018-Jun-08 21:30N 01°17' E 104°13'5 9.3
2018-Jun-08 20:59N 01°18' E 104°17'5 8.8
2018-Jun-08 20:29N 01°21' E 104°21'4 8.5
2018-Jun-08 19:59N 01°24' E 104°24'5 9.5
2018-Jun-08 19:29N 01°26' E 104°28'  
Track history (hours):
 
Tides and Currents Weather Stations Pressure Air Temp Water Temp Dewpoint Dewpoint Depression Visibility Wind Speed Wind Dir Waves Ship Positions

Chance

Last reported at 2018-Jun-10 14:33 UTC. Time now 2018-Jun-24 05:09 UTC.
Position N 01°27' E 103°10'.
Warning: this ship's position is 13 days out of date.

Length 225 m; draft 7.2 m.

Type: Cargo ship. MMSI: 210683000.

Date/timePositionNaut miles runAvg speedWind from/ knotsBaromVisibWave heightAir tempDewpointWater temp
2018-Jun-10 14:33N 01°27' E 103°10'612.3
2018-Jun-10 14:03N 01°23' E 103°15'711.7
2018-Jun-10 13:28N 01°19' E 103°20'511.4
2018-Jun-10 13:00N 01°15' E 103°24'611.1
2018-Jun-10 12:30N 01°13' E 103°29'612.6
2018-Jun-10 12:00N 01°12' E 103°36'611.5
2018-Jun-10 11:30N 01°10' E 103°41'611.2
2018-Jun-10 11:00N 01°10' E 103°47'713.4
2018-Jun-10 10:30N 01°13' E 103°53'4 7.2
2018-Jun-10 10:00N 01°14' E 103°56'3 5.2
2018-Jun-10 09:31N 01°16' E 103°58'1 2.1
2018-Jun-10 08:57N 01°17' E 103°57'0 0.0
2018-Jun-10 08:20N 01°17' E 103°57'0 0.0
2018-Jun-10 07:51N 01°17' E 103°57'0 0.0
2018-Jun-10 07:20N 01°17' E 103°57'0 0.0
2018-Jun-10 06:56N 01°17' E 103°57'0 0.0
2018-Jun-10 06:27N 01°17' E 103°57'0 0.0
2018-Jun-10 05:56N 01°17' E 103°57'0 0.0
2018-Jun-10 05:24N 01°17' E 103°57'0 0.0
2018-Jun-10 04:57N 01°17' E 103°57'0 0.0
2018-Jun-10 04:29N 01°17' E 103°57'0 0.1
2018-Jun-10 03:36N 01°17' E 103°57'0 0.0
2018-Jun-10 03:29N 01°17' E 103°57'0 0.0
2018-Jun-10 02:48N 01°17' E 103°57'0 0.2
2018-Jun-10 02:30N 01°17' E 103°57'0 0.0
2018-Jun-10 01:50N 01°17' E 103°57'0 0.0
2018-Jun-10 01:29N 01°17' E 103°57'0 0.0
2018-Jun-10 00:59N 01°17' E 103°57'0 0.0
2018-Jun-10 00:29N 01°17' E 103°57'0 0.0
2018-Jun-09 23:56N 01°17' E 103°57'0 0.0
2018-Jun-09 23:30N 01°17' E 103°57'0 0.0
2018-Jun-09 22:57N 01°17' E 103°57'0 0.0
2018-Jun-09 22:26N 01°17' E 103°57'0 0.0
2018-Jun-09 21:56N 01°17' E 103°57'0 0.0
2018-Jun-09 21:30N 01°17' E 103°57'0 0.0
2018-Jun-09 20:59N 01°17' E 103°57'0 0.2
2018-Jun-09 20:27N 01°17' E 103°57'0 0.2
2018-Jun-09 19:51N 01°17' E 103°57'0 0.0
2018-Jun-09 19:29N 01°17' E 103°57'0 0.1
2018-Jun-09 18:59N 01°17' E 103°57'0 0.0
2018-Jun-09 18:27N 01°17' E 103°57'0 0.0
2018-Jun-09 17:57N 01°17' E 103°57'0 0.0
2018-Jun-09 17:24N 01°17' E 103°57'0 0.0
2018-Jun-09 16:59N 01°17' E 103°57'0 0.0
2018-Jun-09 16:27N 01°17' E 103°57'0 0.0
2018-Jun-09 15:57N 01°17' E 103°57'0 0.0
2018-Jun-09 14:59N 01°17' E 103°57'0 0.0
2018-Jun-09 14:21N 01°17' E 103°57'0 0.0
2018-Jun-09 13:58N 01°17' E 103°57'0 0.1
2018-Jun-09 13:29N 01°17' E 103°57'0 0.0
2018-Jun-09 12:53N 01°17' E 103°57'0 0.0
2018-Jun-09 12:30N 01°17' E 103°57'0 0.1
2018-Jun-09 11:59N 01°17' E 103°57'0 0.1
2018-Jun-09 11:30N 01°17' E 103°57'0 0.0
2018-Jun-09 10:55N 01°17' E 103°57'0 0.1
2018-Jun-09 10:29N 01°17' E 103°57'0 0.0
2018-Jun-09 09:52N 01°17' E 103°57'0 0.0
2018-Jun-09 09:29N 01°17' E 103°57'0 0.0
2018-Jun-09 08:41N 01°17' E 103°57'0 0.0
2018-Jun-09 08:25N 01°17' E 103°57'0 0.0
2018-Jun-09 07:57N 01°17' E 103°57'0 0.0
2018-Jun-09 07:18N 01°17' E 103°57'0 0.0
2018-Jun-09 06:58N 01°17' E 103°57'0 0.0
2018-Jun-09 06:24N 01°17' E 103°57'0 0.0
2018-Jun-09 05:58N 01°17' E 103°57'0 0.0
2018-Jun-09 05:25N 01°17' E 103°57'0 0.0
2018-Jun-09 04:53N 01°17' E 103°57'0 0.0
2018-Jun-09 04:17N 01°17' E 103°57'0 0.0
2018-Jun-09 03:58N 01°17' E 103°57'0 0.0
2018-Jun-09 03:30N 01°17' E 103°57'0 0.1
2018-Jun-09 02:56N 01°17' E 103°57'0 0.0
2018-Jun-09 02:23N 01°17' E 103°57'0 0.1
2018-Jun-09 01:50N 01°17' E 103°57'0 0.1
2018-Jun-09 01:17N 01°17' E 103°57'0 0.2
2018-Jun-09 01:00N 01°17' E 103°57'0 0.1
2018-Jun-09 00:30N 01°17' E 103°57'0 0.0
2018-Jun-09 00:00N 01°17' E 103°57'1 2.2
2018-Jun-08 23:30N 01°17' E 103°58'3 4.9
2018-Jun-08 22:59N 01°16' E 104°01'4 7.5
2018-Jun-08 22:30N 01°16' E 104°05'4 7.8
2018-Jun-08 21:59N 01°17' E 104°09'4 8.4
2018-Jun-08 21:30N 01°17' E 104°13'5 9.3
2018-Jun-08 20:59N 01°18' E 104°17'5 8.8
2018-Jun-08 20:29N 01°21' E 104°21'4 8.5
2018-Jun-08 19:59N 01°24' E 104°24'5 9.5
2018-Jun-08 19:29N 01°26' E 104°28'  

Dump ship's entire track history